sensor_id;sensor_type;location;lat;lon;timestamp;temperature;humidity
46752;DHT22;32497;48.936;9.270;2024-03-23T00:56:48;8.50;78.50
46752;DHT22;32497;48.936;9.270;2024-03-23T01:01:50;8.60;78.30
46752;DHT22;32497;48.936;9.270;2024-03-23T01:06:52;8.50;78.60
46752;DHT22;32497;48.936;9.270;2024-03-23T01:11:56;8.40;79.00
46752;DHT22;32497;48.936;9.270;2024-03-23T01:16:58;8.40;79.10
46752;DHT22;32497;48.936;9.270;2024-03-23T01:22:00;8.60;79.00
46752;DHT22;32497;48.936;9.270;2024-03-23T01:27:04;8.70;78.90
46752;DHT22;32497;48.936;9.270;2024-03-23T01:32:07;8.90;78.00
46752;DHT22;32497;48.936;9.270;2024-03-23T01:37:09;8.90;77.50
46752;DHT22;32497;48.936;9.270;2024-03-23T01:42:12;8.90;77.70
46752;DHT22;32497;48.936;9.270;2024-03-23T01:47:15;9.00;77.70
46752;DHT22;32497;48.936;9.270;2024-03-23T01:52:17;9.10;77.70
46752;DHT22;32497;48.936;9.270;2024-03-23T01:57:21;9.10;77.00
46752;DHT22;32497;48.936;9.270;2024-03-23T02:02:23;9.20;76.30
46752;DHT22;32497;48.936;9.270;2024-03-23T02:07:25;9.40;75.80
46752;DHT22;32497;48.936;9.270;2024-03-23T02:12:29;9.40;75.40
46752;DHT22;32497;48.936;9.270;2024-03-23T02:17:33;9.30;75.30
46752;DHT22;32497;48.936;9.270;2024-03-23T02:22:36;9.20;75.90
46752;DHT22;32497;48.936;9.270;2024-03-23T02:27:40;9.10;76.50
46752;DHT22;32497;48.936;9.270;2024-03-23T02:32:42;9.10;76.80
46752;DHT22;32497;48.936;9.270;2024-03-23T02:37:46;8.90;77.30
46752;DHT22;32497;48.936;9.270;2024-03-23T02:42:51;8.90;77.90
46752;DHT22;32497;48.936;9.270;2024-03-23T02:47:53;8.70;78.50
46752;DHT22;32497;48.936;9.270;2024-03-23T02:52:55;8.60;79.00
46752;DHT22;32497;48.936;9.270;2024-03-23T02:57:59;8.50;79.40
46752;DHT22;32497;48.936;9.270;2024-03-23T03:03:03;8.50;79.40
46752;DHT22;32497;48.936;9.270;2024-03-23T03:08:05;8.70;79.00
46752;DHT22;32497;48.936;9.270;2024-03-23T03:13:09;8.90;78.50
46752;DHT22;32497;48.936;9.270;2024-03-23T03:18:11;8.50;79.30
46752;DHT22;32497;48.936;9.270;2024-03-23T03:23:14;8.10;80.70
46752;DHT22;32497;48.936;9.270;2024-03-23T03:28:17;8.10;81.10
46752;DHT22;32497;48.936;9.270;2024-03-23T03:33:20;8.20;81.10
46752;DHT22;32497;48.936;9.270;2024-03-23T03:38:22;8.50;80.40
46752;DHT22;32497;48.936;9.270;2024-03-23T03:43:26;8.70;79.10
46752;DHT22;32497;48.936;9.270;2024-03-23T03:48:29;8.80;79.40
46752;DHT22;32497;48.936;9.270;2024-03-23T03:53:31;9.70;76.60
46752;DHT22;32497;48.936;9.270;2024-03-23T03:58:34;9.80;76.10
46752;DHT22;32497;48.936;9.270;2024-03-23T04:03:37;10.00;75.50
46752;DHT22;32497;48.936;9.270;2024-03-23T04:08:40;9.70;76.30
46752;DHT22;32497;48.936;9.270;2024-03-23T04:13:44;9.50;77.40
46752;DHT22;32497;48.936;9.270;2024-03-23T04:18:46;9.40;77.70
46752;DHT22;32497;48.936;9.270;2024-03-23T04:23:49;9.60;77.20
46752;DHT22;32497;48.936;9.270;2024-03-23T04:28:53;9.90;76.90
46752;DHT22;32497;48.936;9.270;2024-03-23T04:33:56;9.80;78.90
46752;DHT22;32497;48.936;9.270;2024-03-23T04:38:59;9.40;83.20
46752;DHT22;32497;48.936;9.270;2024-03-23T04:44:03;9.00;86.10
46752;DHT22;32497;48.936;9.270;2024-03-23T04:49:05;8.70;88.20
46752;DHT22;32497;48.936;9.270;2024-03-23T04:54:07;8.70;89.30
46752;DHT22;32497;48.936;9.270;2024-03-23T04:59:11;8.50;90.00
46752;DHT22;32497;48.936;9.270;2024-03-23T05:04:14;8.80;90.90
46752;DHT22;32497;48.936;9.270;2024-03-23T05:09:16;9.00;90.90
46752;DHT22;32497;48.936;9.270;2024-03-23T05:14:19;9.10;90.70
46752;DHT22;32497;48.936;9.270;2024-03-23T05:19:21;9.20;90.80
46752;DHT22;32497;48.936;9.270;2024-03-23T05:24:24;9.30;90.30
46752;DHT22;32497;48.936;9.270;2024-03-23T05:29:27;9.30;90.10
46752;DHT22;32497;48.936;9.270;2024-03-23T05:34:30;9.30;89.30
46752;DHT22;32497;48.936;9.270;2024-03-23T05:39:32;9.40;89.10
46752;DHT22;32497;48.936;9.270;2024-03-23T05:44:43;9.30;88.70
46752;DHT22;32497;48.936;9.270;2024-03-23T05:49:46;9.30;88.50
46752;DHT22;32497;48.936;9.270;2024-03-23T05:54:48;9.20;87.90
46752;DHT22;32497;48.936;9.270;2024-03-23T05:59:52;9.10;87.90
46752;DHT22;32497;48.936;9.270;2024-03-23T06:04:54;9.10;88.60
46752;DHT22;32497;48.936;9.270;2024-03-23T06:09:56;9.10;88.60
46752;DHT22;32497;48.936;9.270;2024-03-23T06:15:00;8.90;88.40
46752;DHT22;32497;48.936;9.270;2024-03-23T06:20:03;8.90;86.80
46752;DHT22;32497;48.936;9.270;2024-03-23T06:25:07;8.80;87.80
46752;DHT22;32497;48.936;9.270;2024-03-23T06:30:12;8.80;87.20
46752;DHT22;32497;48.936;9.270;2024-03-23T06:35:15;8.90;87.20
46752;DHT22;32497;48.936;9.270;2024-03-23T06:40:17;8.80;86.80
46752;DHT22;32497;48.936;9.270;2024-03-23T06:45:21;8.90;87.00
46752;DHT22;32497;48.936;9.270;2024-03-23T06:50:24;8.80;86.70
46752;DHT22;32497;48.936;9.270;2024-03-23T06:55:27;8.60;84.80
46752;DHT22;32497;48.936;9.270;2024-03-23T07:00:31;8.60;85.10
46752;DHT22;32497;48.936;9.270;2024-03-23T07:05:34;8.70;84.30
46752;DHT22;32497;48.936;9.270;2024-03-23T07:10:39;8.70;83.80
46752;DHT22;32497;48.936;9.270;2024-03-23T07:15:43;8.80;84.00
46752;DHT22;32497;48.936;9.270;2024-03-23T07:20:52;8.90;82.90
46752;DHT22;32497;48.936;9.270;2024-03-23T07:25:57;9.00;83.00
46752;DHT22;32497;48.936;9.270;2024-03-23T07:31:05;9.00;83.20
46752;DHT22;32497;48.936;9.270;2024-03-23T07:36:09;9.10;82.80
46752;DHT22;32497;48.936;9.270;2024-03-23T07:41:15;8.90;82.70
46752;DHT22;32497;48.936;9.270;2024-03-23T07:46:20;8.90;82.40
46752;DHT22;32497;48.936;9.270;2024-03-23T07:51:23;9.00;81.90
46752;DHT22;32497;48.936;9.270;2024-03-23T07:56:25;9.00;82.00
46752;DHT22;32497;48.936;9.270;2024-03-23T08:01:31;9.00;81.10
46752;DHT22;32497;48.936;9.270;2024-03-23T08:06:33;8.90;82.10
46752;DHT22;32497;48.936;9.270;2024-03-23T08:11:36;8.20;84.60
46752;DHT22;32497;48.936;9.270;2024-03-23T08:16:41;7.90;85.30
46752;DHT22;32497;48.936;9.270;2024-03-23T08:21:49;7.70;86.60
46752;DHT22;32497;48.936;9.270;2024-03-23T08:26:54;7.20;86.90
46752;DHT22;32497;48.936;9.270;2024-03-23T08:31:58;7.50;87.40
46752;DHT22;32497;48.936;9.270;2024-03-23T08:37:01;7.50;86.10
46752;DHT22;32497;48.936;9.270;2024-03-23T08:42:04;7.40;87.80
46752;DHT22;32497;48.936;9.270;2024-03-23T08:47:08;7.80;84.90
46752;DHT22;32497;48.936;9.270;2024-03-23T08:52:10;8.20;84.50
46752;DHT22;32497;48.936;9.270;2024-03-23T08:57:12;8.40;84.10
46752;DHT22;32497;48.936;9.270;2024-03-23T09:02:16;8.70;82.90
46752;DHT22;32497;48.936;9.270;2024-03-23T09:07:18;9.10;80.70
46752;DHT22;32497;48.936;9.270;2024-03-23T09:12:20;9.20;80.10
46752;DHT22;32497;48.936;9.270;2024-03-23T09:17:24;9.90;77.30
46752;DHT22;32497;48.936;9.270;2024-03-23T09:22:26;10.10;76.00
46752;DHT22;32497;48.936;9.270;2024-03-23T09:27:28;9.60;77.20
46752;DHT22;32497;48.936;9.270;2024-03-23T09:32:32;9.10;78.60
46752;DHT22;32497;48.936;9.270;2024-03-23T09:37:34;8.80;81.50
46752;DHT22;32497;48.936;9.270;2024-03-23T09:42:37;8.60;82.70
46752;DHT22;32497;48.936;9.270;2024-03-23T09:47:41;8.70;82.90
46752;DHT22;32497;48.936;9.270;2024-03-23T09:52:43;8.70;81.90
46752;DHT22;32497;48.936;9.270;2024-03-23T09:57:47;8.90;81.00
46752;DHT22;32497;48.936;9.270;2024-03-23T10:02:51;9.30;81.50
46752;DHT22;32497;48.936;9.270;2024-03-23T10:07:53;9.60;79.40
46752;DHT22;32497;48.936;9.270;2024-03-23T10:12:55;10.20;76.90
46752;DHT22;32497;48.936;9.270;2024-03-23T10:18:17;10.80;74.10
46752;DHT22;32497;48.936;9.270;2024-03-23T10:23:20;11.10;69.80
46752;DHT22;32497;48.936;9.270;2024-03-23T10:28:22;10.20;69.00
46752;DHT22;32497;48.936;9.270;2024-03-23T10:33:26;9.60;68.20
46752;DHT22;32497;48.936;9.270;2024-03-23T10:38:29;9.10;69.90
46752;DHT22;32497;48.936;9.270;2024-03-23T10:43:33;9.20;69.70
46752;DHT22;32497;48.936;9.270;2024-03-23T10:48:36;9.50;65.40
46752;DHT22;32497;48.936;9.270;2024-03-23T10:53:40;9.40;62.70
46752;DHT22;32497;48.936;9.270;2024-03-23T10:58:46;9.10;64.60
46752;DHT22;32497;48.936;9.270;2024-03-23T11:03:52;8.50;69.10
46752;DHT22;32497;48.936;9.270;2024-03-23T11:08:54;7.40;77.70
46752;DHT22;32497;48.936;9.270;2024-03-23T11:13:58;6.90;79.80
46752;DHT22;32497;48.936;9.270;2024-03-23T11:24:37;6.90;84.10
46752;DHT22;32497;48.936;9.270;2024-03-23T11:29:39;6.90;80.90
46752;DHT22;32497;48.936;9.270;2024-03-23T11:34:42;7.60;79.30
46752;DHT22;32497;48.936;9.270;2024-03-23T11:39:46;7.90;77.40
46752;DHT22;32497;48.936;9.270;2024-03-23T11:44:50;8.60;79.50
46752;DHT22;32497;48.936;9.270;2024-03-23T11:49:52;8.60;77.00
46752;DHT22;32497;48.936;9.270;2024-03-23T11:55:04;8.40;74.00
46752;DHT22;32497;48.936;9.270;2024-03-23T12:00:21;8.40;75.00
46752;DHT22;32497;48.936;9.270;2024-03-23T12:05:26;8.20;74.30
46752;DHT22;32497;48.936;9.270;2024-03-23T12:10:30;8.30;75.60
46752;DHT22;32497;48.936;9.270;2024-03-23T12:15:32;8.50;72.70
46752;DHT22;32497;48.936;9.270;2024-03-23T12:20:34;8.70;74.50
46752;DHT22;32497;48.936;9.270;2024-03-23T12:25:38;9.20;68.90
46752;DHT22;32497;48.936;9.270;2024-03-23T12:30:41;11.30;63.30
46752;DHT22;32497;48.936;9.270;2024-03-23T12:35:44;13.30;57.20
46752;DHT22;32497;48.936;9.270;2024-03-23T12:40:48;13.70;49.40
46752;DHT22;32497;48.936;9.270;2024-03-23T12:45:50;12.00;56.50
46752;DHT22;32497;48.936;9.270;2024-03-23T12:50:54;13.00;52.50
46752;DHT22;32497;48.936;9.270;2024-03-23T12:55:58;13.20;52.50
46752;DHT22;32497;48.936;9.270;2024-03-23T13:01:00;14.70;51.00
46752;DHT22;32497;48.936;9.270;2024-03-23T13:06:03;12.90;50.20
46752;DHT22;32497;48.936;9.270;2024-03-23T13:11:10;11.80;56.10
46752;DHT22;32497;48.936;9.270;2024-03-23T13:16:12;12.60;55.20
46752;DHT22;32497;48.936;9.270;2024-03-23T13:21:14;14.40;49.60
46752;DHT22;32497;48.936;9.270;2024-03-23T13:26:18;16.20;43.70
46752;DHT22;32497;48.936;9.270;2024-03-23T13:31:21;14.60;43.60
46752;DHT22;32497;48.936;9.270;2024-03-23T13:36:23;14.70;40.40
46752;DHT22;32497;48.936;9.270;2024-03-23T13:41:26;16.10;41.60
46752;DHT22;32497;48.936;9.270;2024-03-23T13:46:29;16.80;38.50
46752;DHT22;32497;48.936;9.270;2024-03-23T13:51:31;16.00;42.40
46752;DHT22;32497;48.936;9.270;2024-03-23T13:56:35;15.50;39.70
46752;DHT22;32497;48.936;9.270;2024-03-23T14:01:37;12.50;47.10
46752;DHT22;32497;48.936;9.270;2024-03-23T14:06:39;9.30;67.70
46752;DHT22;32497;48.936;9.270;2024-03-23T14:11:43;7.60;74.50
46752;DHT22;32497;48.936;9.270;2024-03-23T14:16:46;7.30;77.50
46752;DHT22;32497;48.936;9.270;2024-03-23T14:21:48;7.20;81.00
46752;DHT22;32497;48.936;9.270;2024-03-23T14:26:52;6.90;80.70
46752;DHT22;32497;48.936;9.270;2024-03-23T14:31:54;7.00;79.50
46752;DHT22;32497;48.936;9.270;2024-03-23T14:36:56;6.70;76.80
46752;DHT22;32497;48.936;9.270;2024-03-23T14:42:01;6.50;78.20
46752;DHT22;32497;48.936;9.270;2024-03-23T14:47:03;8.70;76.10
46752;DHT22;32497;48.936;9.270;2024-03-23T14:52:05;10.20;67.70
46752;DHT22;32497;48.936;9.270;2024-03-23T14:57:09;11.20;68.60
46752;DHT22;32497;48.936;9.270;2024-03-23T15:02:11;12.10;62.80
46752;DHT22;32497;48.936;9.270;2024-03-23T15:07:14;11.20;61.20
46752;DHT22;32497;48.936;9.270;2024-03-23T15:12:18;9.10;68.40
46752;DHT22;32497;48.936;9.270;2024-03-23T15:17:22;9.60;63.70
46752;DHT22;32497;48.936;9.270;2024-03-23T15:22:24;10.30;60.30
46752;DHT22;32497;48.936;9.270;2024-03-23T15:27:27;10.90;58.00
46752;DHT22;32497;48.936;9.270;2024-03-23T15:32:30;11.20;56.30
46752;DHT22;32497;48.936;9.270;2024-03-23T15:37:32;11.70;53.00
46752;DHT22;32497;48.936;9.270;2024-03-23T15:42:37;11.30;52.90
46752;DHT22;32497;48.936;9.270;2024-03-23T15:47:39;11.90;51.20
46752;DHT22;32497;48.936;9.270;2024-03-23T15:52:41;11.70;54.30
46752;DHT22;32497;48.936;9.270;2024-03-23T15:57:45;9.70;61.30
46752;DHT22;32497;48.936;9.270;2024-03-23T16:02:47;9.80;61.70
46752;DHT22;32497;48.936;9.270;2024-03-23T16:07:49;9.60;63.00
46752;DHT22;32497;48.936;9.270;2024-03-23T16:12:53;9.10;65.00
46752;DHT22;32497;48.936;9.270;2024-03-23T16:17:55;8.70;64.50
46752;DHT22;32497;48.936;9.270;2024-03-23T16:22:58;8.70;66.50
46752;DHT22;32497;48.936;9.270;2024-03-23T16:28:01;8.20;68.00
46752;DHT22;32497;48.936;9.270;2024-03-23T16:33:04;8.00;68.40
46752;DHT22;32497;48.936;9.270;2024-03-23T16:38:07;7.60;68.90
46752;DHT22;32497;48.936;9.270;2024-03-23T16:43:11;7.70;70.20
46752;DHT22;32497;48.936;9.270;2024-03-23T16:48:13;7.90;68.60
46752;DHT22;32497;48.936;9.270;2024-03-23T16:53:15;8.10;69.70
46752;DHT22;32497;48.936;9.270;2024-03-23T16:58:22;7.90;69.10
46752;DHT22;32497;48.936;9.270;2024-03-23T17:03:27;7.90;69.10
46752;DHT22;32497;48.936;9.270;2024-03-23T17:08:29;7.60;68.90
46752;DHT22;32497;48.936;9.270;2024-03-23T17:13:33;7.40;69.50
46752;DHT22;32497;48.936;9.270;2024-03-23T17:18:35;7.40;73.10
46752;DHT22;32497;48.936;9.270;2024-03-23T17:23:38;6.80;74.80
46752;DHT22;32497;48.936;9.270;2024-03-23T17:28:42;5.50;81.40
46752;DHT22;32497;48.936;9.270;2024-03-23T17:33:44;4.50;85.00
46752;DHT22;32497;48.936;9.270;2024-03-23T17:38:46;4.10;86.00
46752;DHT22;32497;48.936;9.270;2024-03-23T17:43:50;4.00;87.20
46752;DHT22;32497;48.936;9.270;2024-03-23T17:48:52;3.90;87.50
46752;DHT22;32497;48.936;9.270;2024-03-23T17:53:55;4.00;88.40
46752;DHT22;32497;48.936;9.270;2024-03-23T17:58:58;4.10;88.10
46752;DHT22;32497;48.936;9.270;2024-03-23T18:04:01;4.10;87.50
46752;DHT22;32497;48.936;9.270;2024-03-23T18:09:03;4.00;88.30
46752;DHT22;32497;48.936;9.270;2024-03-23T18:14:07;3.90;88.40
46752;DHT22;32497;48.936;9.270;2024-03-23T18:19:09;3.90;89.30
46752;DHT22;32497;48.936;9.270;2024-03-23T18:24:12;4.00;90.00
46752;DHT22;32497;48.936;9.270;2024-03-23T18:29:15;4.10;90.30
46752;DHT22;32497;48.936;9.270;2024-03-23T18:34:18;4.10;90.40
46752;DHT22;32497;48.936;9.270;2024-03-23T18:39:20;4.10;90.80
46752;DHT22;32497;48.936;9.270;2024-03-23T18:44:24;4.00;90.40
46752;DHT22;32497;48.936;9.270;2024-03-23T18:49:26;3.90;90.10
46752;DHT22;32497;48.936;9.270;2024-03-23T18:54:28;3.70;89.40
46752;DHT22;32497;48.936;9.270;2024-03-23T18:59:32;3.70;90.00
46752;DHT22;32497;48.936;9.270;2024-03-23T19:04:34;3.80;89.80
46752;DHT22;32497;48.936;9.270;2024-03-23T19:09:37;3.80;89.50
46752;DHT22;32497;48.936;9.270;2024-03-23T19:14:40;3.90;89.80
46752;DHT22;32497;48.936;9.270;2024-03-23T19:19:42;4.00;90.30
46752;DHT22;32497;48.936;9.270;2024-03-23T19:24:45;3.80;88.80
46752;DHT22;32497;48.936;9.270;2024-03-23T19:29:50;3.70;88.80
46752;DHT22;32497;48.936;9.270;2024-03-23T19:34:53;3.60;89.40
46752;DHT22;32497;48.936;9.270;2024-03-23T19:39:56;3.40;89.70
46752;DHT22;32497;48.936;9.270;2024-03-23T19:45:00;3.30;90.00
46752;DHT22;32497;48.936;9.270;2024-03-23T19:50:03;3.10;90.30
46752;DHT22;32497;48.936;9.270;2024-03-23T19:55:06;2.90;90.70
46752;DHT22;32497;48.936;9.270;2024-03-23T20:00:11;2.90;90.90
46752;DHT22;32497;48.936;9.270;2024-03-23T20:05:13;2.80;91.10
46752;DHT22;32497;48.936;9.270;2024-03-23T20:10:16;2.80;91.20
46752;DHT22;32497;48.936;9.270;2024-03-23T20:15:19;2.80;91.20
46752;DHT22;32497;48.936;9.270;2024-03-23T20:20:21;2.80;91.20
46752;DHT22;32497;48.936;9.270;2024-03-23T20:25:25;2.80;91.00
46752;DHT22;32497;48.936;9.270;2024-03-23T20:30:28;2.80;91.00
46752;DHT22;32497;48.936;9.270;2024-03-23T20:35:31;2.80;91.10
46752;DHT22;32497;48.936;9.270;2024-03-23T20:40:34;2.80;91.20
46752;DHT22;32497;48.936;9.270;2024-03-23T20:45:38;2.80;90.80
46752;DHT22;32497;48.936;9.270;2024-03-23T20:50:41;2.80;90.70
46752;DHT22;32497;48.936;9.270;2024-03-23T20:55:50;2.70;90.70
46752;DHT22;32497;48.936;9.270;2024-03-23T21:00:57;2.80;90.90
46752;DHT22;32497;48.936;9.270;2024-03-23T21:06:00;2.70;91.10
46752;DHT22;32497;48.936;9.270;2024-03-23T21:11:04;2.70;91.20
46752;DHT22;32497;48.936;9.270;2024-03-23T21:16:09;2.70;91.00
46752;DHT22;32497;48.936;9.270;2024-03-23T21:21:11;2.60;90.90
46752;DHT22;32497;48.936;9.270;2024-03-23T21:26:15;2.50;90.90
46752;DHT22;32497;48.936;9.270;2024-03-23T21:31:18;2.40;90.70
46752;DHT22;32497;48.936;9.270;2024-03-23T21:36:21;2.50;91.00
46752;DHT22;32497;48.936;9.270;2024-03-23T21:41:24;2.60;91.10
46752;DHT22;32497;48.936;9.270;2024-03-23T21:46:29;2.60;91.00
46752;DHT22;32497;48.936;9.270;2024-03-23T21:51:32;2.60;91.00
46752;DHT22;32497;48.936;9.270;2024-03-23T21:56:36;2.70;91.20
46752;DHT22;32497;48.936;9.270;2024-03-23T22:01:39;3.00;91.40
46752;DHT22;32497;48.936;9.270;2024-03-23T22:06:41;3.00;91.10
46752;DHT22;32497;48.936;9.270;2024-03-23T22:11:44;3.00;90.90
46752;DHT22;32497;48.936;9.270;2024-03-23T22:16:47;3.00;90.50
46752;DHT22;32497;48.936;9.270;2024-03-23T22:21:49;3.10;90.70
46752;DHT22;32497;48.936;9.270;2024-03-23T22:26:52;3.20;90.70
46752;DHT22;32497;48.936;9.270;2024-03-23T22:31:56;3.40;90.90
46752;DHT22;32497;48.936;9.270;2024-03-23T22:37:00;3.40;90.30
46752;DHT22;32497;48.936;9.270;2024-03-23T22:42:02;3.40;89.90
46752;DHT22;32497;48.936;9.270;2024-03-23T22:47:06;3.50;89.90
46752;DHT22;32497;48.936;9.270;2024-03-23T22:52:08;3.60;90.00
46752;DHT22;32497;48.936;9.270;2024-03-23T22:57:10;3.60;89.60
46752;DHT22;32497;48.936;9.270;2024-03-23T23:02:14;3.70;89.60
46752;DHT22;32497;48.936;9.270;2024-03-23T23:07:18;3.70;89.20
46752;DHT22;32497;48.936;9.270;2024-03-23T23:12:20;3.70;88.40
46752;DHT22;32497;48.936;9.270;2024-03-23T23:17:24;3.80;88.80
46752;DHT22;32497;48.936;9.270;2024-03-23T23:22:26;3.80;89.20
46752;DHT22;32497;48.936;9.270;2024-03-23T23:27:29;3.70;88.60
46752;DHT22;32497;48.936;9.270;2024-03-23T23:32:32;3.70;88.50
46752;DHT22;32497;48.936;9.270;2024-03-23T23:37:35;3.70;88.30
46752;DHT22;32497;48.936;9.270;2024-03-23T23:42:37;3.80;88.30
46752;DHT22;32497;48.936;9.270;2024-03-23T23:47:41;3.70;88.10
46752;DHT22;32497;48.936;9.270;2024-03-23T23:52:43;3.70;88.50
46752;DHT22;32497;48.936;9.270;2024-03-23T23:57:45;3.80;88.10
